Time;durP1;ratioP1;P1;durP2;ratioP2;P2;SDS_P1;SDS_P2;PMS_P1;PMS_P2;Temp;Humidity;BMP_temperature;BMP_pressure;BME280_temperature;BME280_humidity;BME280_pressure;Samples;Min_cycle;Max_cycle;Signal;HPM_P1;HPM_P2
2021/10/08 00:01:23;;;;;;;3.87;3.47;;;;;;;8.33;100.00;101985.88;5074157;28;20488;-73
2021/10/08 00:03:48;;;;;;;3.10;2.87;;;;;;;8.28;100.00;101985.84;5092051;28;20219;-73
2021/10/08 00:06:14;;;;;;;4.03;3.63;;;;;;;8.15;100.00;101984.38;5092203;28;20210;-74
2021/10/08 00:08:41;;;;;;;3.67;3.37;;;;;;;7.94;100.00;101983.31;5092270;28;20173;-77
2021/10/08 00:11:08;;;;;;;4.00;3.70;;;;;;;7.78;100.00;101984.22;5092106;28;20170;-76
2021/10/08 00:13:34;;;;;;;3.53;3.23;;;;;;;7.65;100.00;101988.16;5091883;28;20217;-77
2021/10/08 00:16:01;;;;;;;3.47;3.27;;;;;;;7.68;100.00;101992.28;5092006;28;20571;-76
2021/10/08 00:18:26;;;;;;;3.93;3.37;;;;;;;7.61;100.00;101987.03;5091887;28;20162;-73
2021/10/08 00:20:52;;;;;;;3.20;2.97;;;;;;;7.54;100.00;101980.16;5091922;28;20180;-76
2021/10/08 00:23:17;;;;;;;3.57;3.27;;;;;;;7.57;100.00;101985.91;5091715;28;20223;-76
2021/10/08 00:25:42;;;;;;;4.00;3.63;;;;;;;7.49;100.00;101991.75;5091970;28;20178;-71
2021/10/08 00:28:08;;;;;;;3.40;3.10;;;;;;;7.42;100.00;101964.78;5091925;28;20182;-76
2021/10/08 00:30:33;;;;;;;4.20;3.87;;;;;;;7.34;100.00;101989.66;5091739;28;20170;-76
2021/10/08 00:32:58;;;;;;;3.60;3.30;;;;;;;7.36;100.00;101983.97;5091657;28;20174;-74
2021/10/08 00:35:23;;;;;;;5.97;4.20;;;;;;;7.38;100.00;101984.56;5091476;28;20205;-73
2021/10/08 00:37:51;;;;;;;3.83;3.43;;;;;;;7.35;100.00;101977.72;5091977;28;20189;-74
2021/10/08 00:40:16;;;;;;;3.80;3.43;;;;;;;7.29;100.00;101975.19;5091583;28;20166;-76
2021/10/08 00:42:45;;;;;;;4.03;3.57;;;;;;;7.30;100.00;101972.22;5091663;28;20174;-75
2021/10/08 00:45:11;;;;;;;3.97;3.67;;;;;;;7.36;100.00;101982.09;5091417;28;20765;-76
2021/10/08 00:47:36;;;;;;;3.93;3.43;;;;;;;7.42;100.00;101988.44;5091385;28;20267;-73
2021/10/08 00:50:05;;;;;;;3.60;2.90;;;;;;;7.35;100.00;101982.34;5091760;28;20219;-73
2021/10/08 00:52:30;;;;;;;3.53;3.23;;;;;;;7.33;100.00;101988.03;5091258;28;20170;-76
2021/10/08 00:54:56;;;;;;;3.27;3.00;;;;;;;7.38;100.00;101982.69;5091055;28;20548;-75
2021/10/08 00:57:21;;;;;;;3.30;2.93;;;;;;;7.40;100.00;101976.97;5091218;28;20216;-76
2021/10/08 00:59:47;;;;;;;3.73;3.40;;;;;;;7.43;100.00;101980.00;5091182;28;20170;-74
2021/10/08 01:02:12;;;;;;;3.83;3.17;;;;;;;7.56;100.00;101969.84;5091201;28;20181;-73
2021/10/08 01:04:37;;;;;;;3.30;3.00;;;;;;;7.46;100.00;101982.22;5091084;28;20174;-76
2021/10/08 01:07:03;;;;;;;2.97;2.70;;;;;;;7.37;100.00;101942.13;5090869;28;20190;-77
2021/10/08 01:09:28;;;;;;;2.83;2.60;;;;;;;7.25;100.00;101950.41;5091177;28;20603;-76
2021/10/08 01:11:53;;;;;;;2.77;2.20;;;;;;;7.23;100.00;101981.63;5091177;28;20173;-75
2021/10/08 01:14:19;;;;;;;3.50;3.20;;;;;;;7.33;100.00;101981.75;5090690;28;20200;-73
2021/10/08 01:16:44;;;;;;;3.10;2.73;;;;;;;7.41;100.00;101946.00;5090944;28;20180;-73
2021/10/08 01:19:10;;;;;;;3.50;3.20;;;;;;;7.45;100.00;101985.19;5072680;28;20170;-74
2021/10/08 01:21:35;;;;;;;3.00;2.67;;;;;;;7.47;100.00;101988.47;5072817;28;20598;-73
2021/10/08 01:24:02;;;;;;;3.73;3.43;;;;;;;7.49;100.00;101971.91;5090673;28;20767;-73
2021/10/08 01:26:27;;;;;;;4.73;3.03;;;;;;;7.42;100.00;101989.25;5090829;28;20170;-73
2021/10/08 01:28:52;;;;;;;4.50;3.00;;;;;;;7.43;100.00;101990.06;5090876;28;20219;-73
2021/10/08 01:31:18;;;;;;;3.33;3.03;;;;;;;7.44;100.00;102000.69;5090730;28;20201;-72
2021/10/08 01:33:43;;;;;;;3.60;3.30;;;;;;;7.28;100.00;101993.41;5090578;28;20197;-72
2021/10/08 01:36:08;;;;;;;3.70;3.33;;;;;;;7.11;100.00;101998.06;5090732;28;20583;-76
2021/10/08 01:38:34;;;;;;;3.17;2.77;;;;;;;6.93;100.00;101993.69;5090798;28;20251;-75
2021/10/08 01:40:59;;;;;;;2.93;2.67;;;;;;;6.85;100.00;101991.41;5090726;28;20176;-76
2021/10/08 01:43:24;;;;;;;3.37;2.93;;;;;;;6.81;100.00;101996.53;5091086;28;20178;-76
2021/10/08 01:45:50;;;;;;;3.77;3.47;;;;;;;6.73;100.00;101996.94;5090776;28;20203;-75
2021/10/08 01:48:15;;;;;;;3.77;3.40;;;;;;;6.64;100.00;101979.41;5090669;28;20177;-77
2021/10/08 01:50:40;;;;;;;5.90;3.00;;;;;;;6.56;100.00;101947.25;5090713;28;20575;-75
2021/10/08 01:53:08;;;;;;;4.27;3.87;;;;;;;6.54;100.00;101973.81;5090852;28;20220;-76
2021/10/08 01:55:34;;;;;;;4.13;3.83;;;;;;;6.61;100.00;101962.78;5090388;28;20201;-75
2021/10/08 01:57:59;;;;;;;4.77;2.90;;;;;;;6.64;100.00;101975.84;5090600;28;20189;-77
2021/10/08 02:00:24;;;;;;;3.57;3.27;;;;;;;6.64;100.00;101987.53;5090421;28;20213;-73
2021/10/08 02:02:50;;;;;;;3.43;3.13;;;;;;;6.59;100.00;102008.38;5090520;28;20176;-73
2021/10/08 02:05:15;;;;;;;5.13;3.67;;;;;;;6.61;100.00;102015.19;5092916;28;20181;-73
2021/10/08 02:07:40;;;;;;;3.50;3.20;;;;;;;6.72;100.00;101997.19;5094858;28;20162;-73
2021/10/08 02:10:06;;;;;;;4.03;3.63;;;;;;;6.81;100.00;101982.94;5094833;28;20592;-73
2021/10/08 02:12:32;;;;;;;4.30;3.90;;;;;;;6.87;100.00;102013.72;5094490;28;20261;-73
2021/10/08 02:14:57;;;;;;;4.03;3.63;;;;;;;6.84;100.00;102025.09;5094084;28;20301;-76
2021/10/08 02:17:22;;;;;;;3.87;3.57;;;;;;;6.85;100.00;102018.59;5094452;28;20181;-71
2021/10/08 02:19:48;;;;;;;4.67;4.27;;;;;;;6.89;100.00;102017.00;5094371;28;20174;-73
2021/10/08 02:22:13;;;;;;;3.63;3.33;;;;;;;6.94;100.00;102025.22;5094053;28;20181;-74
2021/10/08 02:24:38;;;;;;;4.93;4.53;;;;;;;6.96;100.00;102025.84;5093992;28;20213;-74
2021/10/08 02:27:04;;;;;;;5.43;4.90;;;;;;;7.05;100.00;102037.09;5094043;28;20174;-73
2021/10/08 02:29:29;;;;;;;5.10;4.70;;;;;;;7.07;100.00;102034.94;5094016;28;20177;-75
2021/10/08 02:31:55;;;;;;;4.90;4.50;;;;;;;7.08;100.00;102033.88;5076101;28;20178;-75
2021/10/08 02:34:21;;;;;;;5.03;3.97;;;;;;;7.09;100.00;102028.22;5093503;28;20209;-75
2021/10/08 02:36:46;;;;;;;5.87;4.90;;;;;;;7.12;100.00;102025.00;5094169;28;20184;-72
2021/10/08 02:39:11;;;;;;;4.87;4.47;;;;;;;7.09;100.00;102043.69;5093988;28;20688;-73
2021/10/08 02:41:37;;;;;;;5.17;4.67;;;;;;;7.11;100.00;102028.78;5093759;28;20657;-74
2021/10/08 02:44:03;;;;;;;5.83;5.33;;;;;;;7.15;100.00;102046.22;5093563;28;20169;-73
2021/10/08 02:46:28;;;;;;;5.37;4.90;;;;;;;6.85;100.00;102033.00;5093898;28;20622;-73
2021/10/08 02:48:54;;;;;;;4.53;4.13;;;;;;;6.82;100.00;102033.50;5093862;28;20514;-74
2021/10/08 02:51:19;;;;;;;4.73;4.27;;;;;;;7.01;100.00;102046.81;5093586;28;20177;-74
2021/10/08 02:53:44;;;;;;;4.90;4.40;;;;;;;7.12;100.00;102037.75;5093111;28;20324;-73
2021/10/08 02:56:10;;;;;;;5.23;4.77;;;;;;;7.10;100.00;102043.44;5093591;28;20174;-76
2021/10/08 02:58:36;;;;;;;5.43;4.93;;;;;;;7.07;100.00;102043.91;5093447;28;20162;-76
2021/10/08 03:01:02;;;;;;;6.07;5.00;;;;;;;6.97;100.00;102049.22;5093454;28;20178;-74
2021/10/08 03:03:27;;;;;;;5.57;5.07;;;;;;;6.92;100.00;102054.53;5093423;28;20181;-73
2021/10/08 03:05:52;;;;;;;6.03;5.50;;;;;;;6.88;100.00;102044.44;5092945;28;20181;-73
2021/10/08 03:08:18;;;;;;;5.80;5.30;;;;;;;7.01;100.00;102055.78;5093516;28;20199;-73
2021/10/08 03:10:43;;;;;;;5.50;5.00;;;;;;;7.05;100.00;102061.53;5093426;28;20174;-74
2021/10/08 03:13:08;;;;;;;5.23;4.73;;;;;;;7.01;100.00;102054.97;5093036;28;20265;-73
2021/10/08 03:15:34;;;;;;;6.43;5.83;;;;;;;6.97;100.00;102053.81;5091939;28;20690;-72
2021/10/08 03:17:59;;;;;;;6.27;5.20;;;;;;;6.90;100.00;102047.72;5093391;28;20178;-76
2021/10/08 03:20:25;;;;;;;5.13;4.73;;;;;;;6.79;100.00;102054.88;5093334;28;20178;-76
2021/10/08 03:22:50;;;;;;;5.37;4.83;;;;;;;6.39;100.00;102039.53;5093134;28;20182;-76
2021/10/08 03:25:15;;;;;;;5.47;4.97;;;;;;;5.97;100.00;102022.75;5092877;28;20170;-73
2021/10/08 03:27:41;;;;;;;4.80;4.40;;;;;;;5.97;100.00;101992.91;5093032;28;20178;-73
2021/10/08 03:30:10;;;;;;;5.33;4.83;;;;;;;6.28;100.00;102040.41;5093081;28;20201;-73
2021/10/08 03:32:36;;;;;;;5.10;4.60;;;;;;;6.44;100.00;102044.22;5092979;28;20180;-73
2021/10/08 03:35:02;;;;;;;5.73;5.03;;;;;;;6.40;100.00;102021.38;5092743;28;20549;-73
2021/10/08 03:40:10;;;;;;;4.10;3.70;;;;;;;6.61;100.00;102017.09;5093048;28;20172;-74
2021/10/08 03:42:35;;;;;;;4.30;3.90;;;;;;;6.68;100.00;102045.75;5092506;28;20200;-74
2021/10/08 03:45:09;;;;;;;4.17;3.77;;;;;;;6.79;100.00;102035.84;5092826;28;20618;-74
2021/10/08 03:50:26;;;;;;;5.07;4.67;;;;;;;6.47;100.00;102022.00;5069854;28;20645;-77
2021/10/08 03:52:52;;;;;;;4.90;4.50;;;;;;;6.32;100.00;102033.44;5073922;28;20186;-77
2021/10/08 03:55:17;;;;;;;6.17;5.57;;;;;;;6.31;100.00;102036.38;5092186;28;20205;-77
2021/10/08 03:57:43;;;;;;;5.80;5.30;;;;;;;6.34;100.00;102036.72;5092230;28;20256;-77
2021/10/08 04:00:09;;;;;;;6.57;5.97;;;;;;;6.37;100.00;102047.09;5092169;28;20626;-77
2021/10/08 04:02:34;;;;;;;6.17;5.37;;;;;;;6.35;100.00;102045.69;5092205;28;20197;-74
2021/10/08 04:04:59;;;;;;;6.43;5.87;;;;;;;6.43;100.00;102045.28;5091661;28;20584;-74
2021/10/08 04:07:25;;;;;;;6.93;6.33;;;;;;;6.50;100.00;102049.50;5091848;28;20209;-74
2021/10/08 04:09:50;;;;;;;6.37;5.77;;;;;;;6.54;100.00;102039.00;5091977;28;20204;-73
2021/10/08 04:12:15;;;;;;;5.83;5.23;;;;;;;6.53;100.00;102030.03;5091901;28;20262;-74
2021/10/08 04:14:41;;;;;;;5.70;5.20;;;;;;;6.47;100.00;102057.31;5091537;28;20225;-73
2021/10/08 04:17:06;;;;;;;5.80;5.30;;;;;;;6.39;100.00;102063.16;5091843;28;20622;-74
2021/10/08 04:19:31;;;;;;;4.97;4.57;;;;;;;6.44;100.00;102050.47;5091835;28;20174;-74
2021/10/08 04:21:57;;;;;;;4.70;4.27;;;;;;;6.38;100.00;102058.78;5092016;28;20170;-74
2021/10/08 04:24:22;;;;;;;5.20;4.23;;;;;;;6.49;100.00;102068.75;5092097;28;20212;-73
2021/10/08 04:26:48;;;;;;;4.13;3.83;;;;;;;6.55;100.00;102071.31;5091561;28;20193;-73
2021/10/08 04:29:13;;;;;;;4.43;3.73;;;;;;;6.59;100.00;102063.50;5073401;28;20813;-74
2021/10/08 04:31:38;;;;;;;3.80;3.50;;;;;;;6.64;100.00;102069.00;5091479;28;20235;-74
2021/10/08 04:34:04;;;;;;;4.50;3.67;;;;;;;6.61;100.00;102066.78;5091238;28;20210;-73
2021/10/08 04:36:29;;;;;;;4.33;3.93;;;;;;;6.60;100.00;102064.31;5091460;28;20206;-74
2021/10/08 04:38:55;;;;;;;4.93;4.47;;;;;;;6.59;100.00;102063.50;5091583;28;20228;-75
2021/10/08 04:41:20;;;;;;;5.00;3.97;;;;;;;6.54;100.00;102063.44;5091727;28;20624;-73
2021/10/08 04:43:45;;;;;;;4.30;3.90;;;;;;;6.46;100.00;102061.91;5072947;28;20193;-73
2021/10/08 04:46:11;;;;;;;8.47;4.20;;;;;;;6.43;100.00;102072.44;5091705;28;20206;-77
2021/10/08 04:48:36;;;;;;;4.30;3.33;;;;;;;6.32;100.00;102071.41;5091540;28;20838;-77
2021/10/08 04:51:02;;;;;;;2.63;2.43;;;;;;;6.17;100.00;102071.13;5091256;28;20187;-74
2021/10/08 04:53:27;;;;;;;2.90;2.70;;;;;;;5.91;100.00;102067.91;5091034;28;20174;-76
2021/10/08 04:55:52;;;;;;;2.70;2.50;;;;;;;5.79;100.00;102069.00;5086444;28;20622;-76
2021/10/08 04:58:19;;;;;;;3.03;2.73;;;;;;;5.74;100.00;102072.41;5091161;28;20815;-76
2021/10/08 05:00:47;;;;;;;3.17;2.93;;;;;;;5.78;100.00;102076.28;5091347;28;20648;-77
2021/10/08 05:03:18;;;;;;;3.77;3.47;;;;;;;5.82;100.00;102076.66;5091279;28;20170;-76
2021/10/08 05:05:47;;;;;;;3.47;3.17;;;;;;;5.86;100.00;102084.06;5090951;28;20238;-77
2021/10/08 05:08:13;;;;;;;2.80;2.57;;;;;;;5.74;100.00;102077.81;5091238;28;20182;-78
2021/10/08 05:10:38;;;;;;;3.47;3.17;;;;;;;5.65;100.00;102080.09;5091193;28;20522;-73
2021/10/08 05:13:04;;;;;;;3.70;3.40;;;;;;;5.71;100.00;102088.34;5090880;28;20180;-77
2021/10/08 05:15:29;;;;;;;3.57;3.27;;;;;;;5.84;100.00;102090.78;5091221;28;20208;-74
2021/10/08 05:17:54;;;;;;;4.33;3.93;;;;;;;5.84;100.00;102075.34;5091365;28;20189;-74
2021/10/08 05:20:20;;;;;;;3.63;3.30;;;;;;;5.77;100.00;102084.66;5072802;28;20651;-72
2021/10/08 05:22:45;;;;;;;4.50;4.07;;;;;;;5.70;100.00;102086.69;5090951;28;20177;-73
2021/10/08 05:25:11;;;;;;;4.73;4.23;;;;;;;5.54;100.00;102080.09;5090611;28;20201;-73
2021/10/08 05:27:36;;;;;;;4.80;3.67;;;;;;;5.71;100.00;102085.63;5090838;28;20534;-74
2021/10/08 05:30:02;;;;;;;4.40;4.00;;;;;;;5.88;100.00;102098.19;5090888;28;20231;-75
2021/10/08 05:32:28;;;;;;;4.47;4.07;;;;;;;5.93;100.00;102097.50;5090770;28;20537;-72
2021/10/08 05:34:53;;;;;;;4.67;4.27;;;;;;;5.80;100.00;102101.28;5091006;28;20217;-74
2021/10/08 05:37:18;;;;;;;5.07;4.13;;;;;;;5.39;100.00;102091.44;5090644;28;20174;-74
2021/10/08 05:39:45;;;;;;;4.33;3.90;;;;;;;5.28;100.00;102059.72;5090012;28;20181;-75
2021/10/08 05:42:10;;;;;;;4.80;4.30;;;;;;;5.50;100.00;102057.25;5090698;28;20181;-76
2021/10/08 05:44:35;;;;;;;5.07;4.53;;;;;;;5.75;100.00;102095.75;5090586;28;20174;-75
2021/10/08 05:47:01;;;;;;;5.13;4.63;;;;;;;5.84;100.00;102102.47;5090872;28;20511;-72
2021/10/08 05:49:26;;;;;;;5.33;4.33;;;;;;;5.99;100.00;102087.59;5090655;28;20492;-72
2021/10/08 05:51:51;;;;;;;4.33;3.93;;;;;;;6.07;100.00;102101.59;5090508;28;20653;-72
2021/10/08 05:54:17;;;;;;;4.20;3.80;;;;;;;6.14;100.00;102055.34;5090322;28;20209;-74
2021/10/08 05:56:42;;;;;;;5.20;4.70;;;;;;;6.19;100.00;102118.66;5090152;28;20186;-75
2021/10/08 05:59:07;;;;;;;5.40;4.90;;;;;;;6.23;100.00;102100.03;5071901;28;20247;-75
2021/10/08 06:01:33;;;;;;;5.23;4.70;;;;;;;6.26;100.00;102116.66;5072170;28;20203;-74
2021/10/08 06:04:01;;;;;;;5.97;4.37;;;;;;;6.30;100.00;102124.31;5090120;28;20625;-75
2021/10/08 06:06:26;;;;;;;4.60;4.20;;;;;;;6.32;100.00;102117.56;5090301;28;20182;-76
2021/10/08 06:08:52;;;;;;;4.93;4.30;;;;;;;6.34;100.00;102126.28;5090214;28;20224;-75
2021/10/08 06:11:18;;;;;;;5.30;4.80;;;;;;;6.40;100.00;102119.91;5090164;28;20204;-76
2021/10/08 06:13:44;;;;;;;7.13;4.87;;;;;;;6.48;100.00;102116.78;5089376;28;20181;-75
2021/10/08 06:16:09;;;;;;;6.70;6.10;;;;;;;6.44;100.00;102128.38;5090153;28;20174;-75
2021/10/08 06:18:34;;;;;;;6.07;4.70;;;;;;;6.32;100.00;102131.13;5090139;28;20249;-76
2021/10/08 06:21:00;;;;;;;7.57;4.83;;;;;;;6.31;100.00;102132.22;5090077;28;20224;-75
2021/10/08 06:23:25;;;;;;;5.57;5.00;;;;;;;6.20;100.00;102135.78;5090078;28;20286;-76
2021/10/08 06:25:50;;;;;;;6.93;6.00;;;;;;;6.13;100.00;102141.34;5089789;28;20656;-76
2021/10/08 06:28:16;;;;;;;6.73;6.07;;;;;;;5.76;100.00;102143.50;5090192;28;20174;-74
2021/10/08 06:30:41;;;;;;;5.93;5.33;;;;;;;5.83;100.00;102146.91;5090196;28;20174;-76
2021/10/08 06:33:06;;;;;;;6.03;5.53;;;;;;;5.97;100.00;102144.81;5090026;28;20181;-75
2021/10/08 06:35:32;;;;;;;12.60;6.47;;;;;;;5.87;100.00;102110.13;5089682;28;20217;-76
2021/10/08 06:37:58;;;;;;;6.23;5.63;;;;;;;5.57;100.00;102087.75;5089998;28;20224;-74
2021/10/08 06:40:24;;;;;;;12.33;6.93;;;;;;;5.46;100.00;102104.84;5090060;28;20182;-76
2021/10/08 06:42:50;;;;;;;6.47;5.87;;;;;;;5.49;100.00;102118.75;5090216;28;20621;-75
2021/10/08 06:45:15;;;;;;;6.73;6.00;;;;;;;5.66;100.00;102124.31;5089753;28;20205;-75
2021/10/08 06:47:40;;;;;;;8.07;5.40;;;;;;;5.76;100.00;102132.66;5089869;28;20174;-75
2021/10/08 06:50:06;;;;;;;6.10;5.23;;;;;;;5.94;100.00;102131.72;5087632;28;20177;-79
2021/10/08 06:52:32;;;;;;;5.53;5.03;;;;;;;5.91;100.00;102122.16;5093453;28;20174;-82
2021/10/08 06:54:57;;;;;;;5.83;5.13;;;;;;;6.19;100.00;102134.94;5093493;28;20243;-75
2021/10/08 06:57:23;;;;;;;11.67;5.67;;;;;;;6.39;100.00;102128.31;5093539;28;20390;-76
2021/10/08 06:59:48;;;;;;;10.97;6.37;;;;;;;6.50;100.00;102149.13;5093632;28;20182;-75
2021/10/08 07:02:13;;;;;;;12.97;7.03;;;;;;;6.61;100.00;102144.72;5093640;28;20182;-76
2021/10/08 07:04:39;;;;;;;14.57;5.47;;;;;;;6.43;100.00;102179.16;5093402;28;20213;-76
2021/10/08 07:07:04;;;;;;;13.80;5.47;;;;;;;6.31;100.00;102134.09;5093255;28;20205;-75
2021/10/08 07:09:29;;;;;;;11.90;5.37;;;;;;;6.50;100.00;102179.81;5092915;28;20592;-76
2021/10/08 07:11:55;;;;;;;6.43;5.73;;;;;;;6.73;100.00;102142.78;5093181;28;20174;-75
2021/10/08 07:14:20;;;;;;;12.90;6.40;;;;;;;6.82;100.00;102146.75;5092488;28;20194;-72
2021/10/08 07:16:46;;;;;;;12.70;6.20;;;;;;;6.92;100.00;102141.47;5092979;28;20660;-75
2021/10/08 07:19:14;;;;;;;6.17;5.27;;;;;;;6.95;100.00;102149.19;5092857;28;20170;-76
2021/10/08 07:21:42;;;;;;;6.30;5.63;;;;;;;6.84;100.00;102190.81;5092861;28;20171;-76
2021/10/08 07:24:09;;;;;;;5.73;5.13;;;;;;;6.75;100.00;102179.50;5092621;28;20177;-76
2021/10/08 07:26:34;;;;;;;10.43;5.10;;;;;;;6.73;100.00;102164.50;5092764;28;20184;-76
2021/10/08 07:29:00;;;;;;;8.63;4.87;;;;;;;6.71;100.00;102153.06;5092720;28;20178;-76
2021/10/08 07:31:26;;;;;;;5.70;4.70;;;;;;;6.69;100.00;102191.34;5092731;28;20184;-76
2021/10/08 07:33:52;;;;;;;4.70;4.30;;;;;;;6.76;100.00;102150.44;5074118;28;20562;-75
2021/10/08 07:36:17;;;;;;;4.97;4.47;;;;;;;6.53;100.00;102145.94;5092770;28;20170;-75
2021/10/08 07:38:43;;;;;;;5.03;4.60;;;;;;;6.50;100.00;102157.28;5092558;28;20679;-75
2021/10/08 07:41:09;;;;;;;4.53;4.13;;;;;;;6.67;100.00;102155.44;5092681;28;20205;-76
2021/10/08 07:43:37;;;;;;;5.27;4.77;;;;;;;6.69;100.00;102160.63;5092370;28;20181;-76
2021/10/08 07:46:03;;;;;;;4.60;4.20;;;;;;;6.86;100.00;102169.66;5092281;28;20238;-75
2021/10/08 07:48:28;;;;;;;8.67;5.07;;;;;;;6.49;100.00;102159.16;5092379;28;20181;-75
2021/10/08 07:50:54;;;;;;;5.30;4.90;;;;;;;6.52;100.00;102172.28;5092337;28;20182;-77
2021/10/08 07:53:19;;;;;;;5.50;5.00;;;;;;;6.69;100.00;102169.59;5092494;28;20174;-75
2021/10/08 07:55:44;;;;;;;4.93;4.53;;;;;;;6.60;100.00;102168.34;5091893;28;20245;-75
2021/10/08 07:58:10;;;;;;;6.03;5.33;;;;;;;6.83;100.00;102176.41;5092294;28;20170;-75
2021/10/08 08:00:35;;;;;;;6.33;5.73;;;;;;;6.99;100.00;102182.09;5092086;28;20181;-75
2021/10/08 08:03:00;;;;;;;8.10;7.00;;;;;;;7.04;100.00;102184.91;5091409;28;20261;-75
2021/10/08 08:05:26;;;;;;;8.33;7.53;;;;;;;6.98;100.00;102194.03;5091766;28;20789;-76
2021/10/08 08:07:51;;;;;;;8.10;7.30;;;;;;;7.06;100.00;102193.63;5092044;28;20174;-76
2021/10/08 08:10:17;;;;;;;8.77;7.33;;;;;;;7.31;100.00;102198.69;5091975;28;20177;-73
2021/10/08 08:12:42;;;;;;;9.17;8.00;;;;;;;7.42;100.00;102203.22;5091822;28;20189;-76
2021/10/08 08:15:09;;;;;;;9.20;7.47;;;;;;;7.54;100.00;102236.63;5091075;28;20216;-75
2021/10/08 08:17:36;;;;;;;7.63;6.93;;;;;;;7.78;100.00;102196.44;5091528;28;20285;-75
2021/10/08 08:20:03;;;;;;;10.27;9.27;;;;;;;7.91;100.00;102201.53;5091980;28;20281;-75
2021/10/08 08:22:28;;;;;;;9.53;8.53;;;;;;;7.77;100.00;102241.06;5091728;28;20252;-76
2021/10/08 08:24:54;;;;;;;9.23;7.60;;;;;;;7.55;100.00;102197.47;5091433;28;20258;-76
2021/10/08 08:27:19;;;;;;;9.43;8.47;;;;;;;7.71;100.00;102195.81;5091490;28;20178;-76
2021/10/08 08:29:45;;;;;;;10.20;9.03;;;;;;;7.70;100.00;102210.47;5091869;28;20216;-75
2021/10/08 08:32:10;;;;;;;10.80;8.53;;;;;;;7.75;100.00;102211.38;5091475;28;20249;-75
2021/10/08 08:34:35;;;;;;;13.20;9.87;;;;;;;7.96;100.00;102214.41;5091261;28;20193;-76
2021/10/08 08:37:01;;;;;;;10.33;8.03;;;;;;;8.10;100.00;102204.81;5091271;28;20178;-74
2021/10/08 08:39:26;;;;;;;10.03;8.90;;;;;;;8.09;100.00;102205.88;5091352;28;20178;-75
2021/10/08 08:41:52;;;;;;;10.33;9.33;;;;;;;8.27;100.00;102207.50;5091333;28;20181;-76
2021/10/08 08:44:17;;;;;;;9.87;8.87;;;;;;;8.37;100.00;102204.91;5091054;28;20535;-74
2021/10/08 08:46:44;;;;;;;12.80;9.90;;;;;;;8.59;100.00;102211.19;5091169;28;20174;-76
2021/10/08 08:49:09;;;;;;;12.07;10.87;;;;;;;8.67;100.00;102209.88;5091067;28;20170;-76
2021/10/08 08:51:35;;;;;;;13.03;11.43;;;;;;;8.66;100.00;102213.69;5091483;28;20170;-75
2021/10/08 08:54:01;;;;;;;12.03;10.83;;;;;;;8.78;100.00;102238.09;5091160;28;20254;-73
2021/10/08 08:56:28;;;;;;;13.57;11.87;;;;;;;8.87;100.00;102207.41;5091233;28;20249;-75
2021/10/08 08:58:58;;;;;;;14.07;12.00;;;;;;;8.92;100.00;102190.28;5091357;28;20174;-73
2021/10/08 09:01:24;;;;;;;13.10;11.43;;;;;;;8.91;100.00;102233.06;5091360;28;20174;-72
2021/10/08 09:04:11;;;;;;;11.73;10.53;;;;;;;9.01;100.00;102229.63;5090880;28;20173;-74
2021/10/08 09:06:39;;;;;;;11.03;10.07;;;;;;;9.15;100.00;102236.31;5091116;28;20222;-73
2021/10/08 09:09:20;;;;;;;15.30;12.60;;;;;;;9.32;100.00;102238.94;5091478;28;20231;-73
2021/10/08 09:11:47;;;;;;;17.30;11.87;;;;;;;9.54;100.00;102204.19;5091070;28;20256;-73
2021/10/08 09:14:22;;;;;;;11.33;10.13;;;;;;;9.76;100.00;102247.75;5089393;28;20205;-74
2021/10/08 09:17:04;;;;;;;11.10;9.90;;;;;;;9.88;100.00;102235.84;5091003;28;20516;-76
2021/10/08 09:19:57;;;;;;;11.53;10.33;;;;;;;9.77;100.00;102226.75;5090988;28;20173;-72
2021/10/08 09:22:29;;;;;;;12.57;10.70;;;;;;;9.98;100.00;102246.81;5078586;28;20193;-73
2021/10/08 09:25:08;;;;;;;11.43;10.30;;;;;;;10.25;100.00;102241.28;5090618;28;20173;-73
2021/10/08 09:27:38;;;;;;;10.70;9.80;;;;;;;10.34;100.00;102239.69;5090908;28;20174;-75
2021/10/08 09:30:05;;;;;;;10.97;9.87;;;;;;;10.42;100.00;102236.47;5090870;28;20531;-74
2021/10/08 09:32:41;;;;;;;10.07;8.60;;;;;;;10.27;100.00;102245.41;5090914;28;20170;-75
2021/10/08 09:35:09;;;;;;;11.23;10.23;;;;;;;10.16;100.00;102238.22;5090478;28;20284;-75
2021/10/08 09:37:35;;;;;;;11.57;10.47;;;;;;;10.08;100.00;102235.97;5090876;28;20185;-75
2021/10/08 09:40:01;;;;;;;11.60;10.40;;;;;;;10.11;100.00;102238.97;5091078;28;20690;-75
2021/10/08 09:42:36;;;;;;;16.80;10.50;;;;;;;10.19;100.00;102242.31;5090785;28;20211;-74
2021/10/08 09:45:03;;;;;;;11.70;10.50;;;;;;;10.29;100.00;102245.97;5090715;28;20587;-76
2021/10/08 09:47:29;;;;;;;12.43;11.23;;;;;;;10.32;100.00;102220.03;5090859;28;20538;-75
2021/10/08 09:50:12;;;;;;;10.13;9.13;;;;;;;10.36;100.00;102224.69;5090616;28;20449;-73
2021/10/08 09:52:38;;;;;;;12.27;10.97;;;;;;;10.40;100.00;102225.78;5090941;28;20166;-73
2021/10/08 09:55:09;;;;;;;11.90;10.83;;;;;;;10.52;100.00;102231.03;5090367;28;20197;-73
2021/10/08 09:57:47;;;;;;;12.77;11.47;;;;;;;10.58;100.00;102224.50;5090815;28;20170;-73
2021/10/08 10:00:38;;;;;;;14.43;11.53;;;;;;;10.78;100.00;102225.66;5090730;28;20166;-73
2021/10/08 10:03:05;;;;;;;11.43;10.43;;;;;;;10.78;100.00;102240.16;5090571;28;20197;-72
2021/10/08 10:05:32;;;;;;;12.47;10.73;;;;;;;10.86;100.00;102233.34;5090203;28;20266;-75
2021/10/08 10:07:58;;;;;;;13.97;11.40;;;;;;;11.01;100.00;102220.53;5090645;28;20190;-73
2021/10/08 10:10:24;;;;;;;12.40;11.30;;;;;;;11.15;100.00;102198.94;5090697;28;20185;-73
2021/10/08 10:12:50;;;;;;;15.17;10.80;;;;;;;11.05;100.00;102239.94;5090045;28;20830;-74
2021/10/08 10:15:18;;;;;;;15.67;12.97;;;;;;;11.18;100.00;102246.81;5090199;28;20271;-74
2021/10/08 10:17:43;;;;;;;14.27;11.07;;;;;;;11.21;100.00;102235.34;5090555;28;20177;-75
2021/10/08 10:20:11;;;;;;;13.60;12.40;;;;;;;11.25;100.00;102237.25;5089291;28;20666;-74
2021/10/08 10:22:37;;;;;;;10.10;9.20;;;;;;;11.39;100.00;102243.00;5094252;28;20186;-76
2021/10/08 10:25:04;;;;;;;13.20;11.80;;;;;;;11.40;100.00;102244.66;5087721;28;20178;-75
2021/10/08 10:27:29;;;;;;;11.33;10.23;;;;;;;11.60;100.00;102246.59;5094102;28;20182;-76
2021/10/08 10:29:55;;;;;;;11.90;10.70;;;;;;;11.78;100.00;102243.28;5094445;28;20253;-75
2021/10/08 10:32:22;;;;;;;12.73;11.63;;;;;;;11.63;100.00;102230.44;5094824;28;20166;-75
2021/10/08 10:34:48;;;;;;;12.73;11.47;;;;;;;11.32;100.00;102224.13;5094032;28;20205;-75
2021/10/08 10:37:37;;;;;;;11.90;10.90;;;;;;;11.49;100.00;102228.50;5094042;28;20180;-75
2021/10/08 10:40:21;;;;;;;13.07;11.87;;;;;;;11.79;100.00;102242.22;5093537;28;20182;-75
2021/10/08 10:43:15;;;;;;;14.73;11.40;;;;;;;11.91;100.00;102245.50;5093844;28;20170;-75
2021/10/08 10:45:47;;;;;;;14.33;11.57;;;;;;;11.90;100.00;102241.13;5093723;28;20231;-75
2021/10/08 10:48:22;;;;;;;14.13;12.70;;;;;;;12.02;100.00;102235.34;5093822;28;20193;-75
2021/10/08 10:51:20;;;;;;;12.23;11.10;;;;;;;11.93;100.00;102238.91;5094181;28;20208;-75
2021/10/08 10:53:53;;;;;;;12.10;10.90;;;;;;;12.00;100.00;102237.53;5093531;28;20205;-74
2021/10/08 10:56:36;;;;;;;14.90;12.07;;;;;;;12.23;100.00;102232.56;5093629;28;20253;-75
2021/10/08 10:59:23;;;;;;;14.37;12.57;;;;;;;12.25;100.00;102222.94;5093517;28;20253;-75
2021/10/08 11:02:08;;;;;;;13.67;12.30;;;;;;;12.42;100.00;102231.66;5093680;28;20170;-75
2021/10/08 11:04:41;;;;;;;15.23;13.67;;;;;;;12.35;100.00;102225.66;5093361;28;20170;-75
2021/10/08 11:07:10;;;;;;;16.70;12.63;;;;;;;12.48;100.00;102221.50;5093213;28;20188;-75
2021/10/08 11:09:37;;;;;;;16.17;14.47;;;;;;;12.66;100.00;102222.78;5093569;28;20533;-75
2021/10/08 11:12:38;;;;;;;15.43;13.80;;;;;;;12.81;100.00;102217.22;5093358;28;20196;-75
2021/10/08 11:15:21;;;;;;;14.43;12.93;;;;;;;13.03;100.00;102222.31;5093197;28;20224;-75
2021/10/08 11:17:53;;;;;;;16.10;13.27;;;;;;;13.10;100.00;102215.41;5093135;28;20161;-74
2021/10/08 11:20:25;;;;;;;15.23;13.50;;;;;;;13.26;100.00;102207.09;5093334;28;20162;-72
2021/10/08 11:22:50;;;;;;;17.13;14.23;;;;;;;13.39;100.00;102212.75;5093151;28;20177;-72
2021/10/08 11:25:16;;;;;;;16.00;14.33;;;;;;;13.23;100.00;102208.47;5091578;28;20174;-72